This is the latest recevied weather packets stored in our database for station/object KC0RPY. If no packets are shown the sender has not sent any weather packets the latest 10 day(s).
| Time | Temp. | Humidity | Pressure | Rain* | Wind** | Luminosity | Snow |
|---|---|---|---|---|---|---|---|
| 1777990607 | 8.33° C | 94% | 1012.5 hPa | 0 mm | - | 150 W/m² | - |
| 1777989999 | 8.33° C | 94% | 1013.2 hPa | 0 mm | - | 29 W/m² | - |
| 1777989697 | 8.33° C | 93% | 1013.2 hPa | 0 mm | - | 34 W/m² | - |
| 1777989392 | 8.33° C | 92% | 1012.8 hPa | 0 mm | - | 35 W/m² | - |
| 1777989089 | 8.33° C | 93% | 1012.5 hPa | 0 mm | - | 46 W/m² | - |
| 1777988785 | 8.33° C | 93% | 1012.5 hPa | 0 mm | - | 32 W/m² | - |
| 1777988483 | 8.33° C | 94% | 1012.5 hPa | 0 mm | - | 21 W/m² | - |
| 1777988179 | 8.33° C | 93% | 1013.2 hPa | 0 mm | - | 7 W/m² | - |
| 1777987875 | 8.89° C | 92% | 1012.8 hPa | 0 mm | - | 10 W/m² | - |
| 1777987572 | 8.89° C | 91% | 1012.2 hPa | 0 mm | - | 55 W/m² | - |
| 1777987269 | 8.89° C | 90% | 1012.8 hPa | 0 mm | - | 60 W/m² | - |
| 1777986966 | 8.89° C | 89% | 1013.2 hPa | 0 mm | - | 10 W/m² | - |
| 1777986664 | 8.89° C | 87% | 1012.2 hPa | 0 mm | - | 19 W/m² | - |
| 1777986361 | 8.89° C | 85% | 1012.5 hPa | 0 mm | - | 7 W/m² | - |
| 1777986060 | 9.44° C | 82% | 1011.8 hPa | 0 mm | - | 9 W/m² | - |
| 1777985756 | 9.44° C | 81% | 1012.2 hPa | 0 mm | - | 6 W/m² | - |
| 1777985453 | 9.44° C | 80% | 1012.2 hPa | 0 mm | - | 4 W/m² | - |
| 1777985150 | 9.44° C | 79% | 1010.7 hPa | 0 mm | - | 12 W/m² | - |
| 1777984846 | 9.44° C | 80% | 1010.4 hPa | 0 mm | - | 18 W/m² | - |
| 1777984543 | 9.44° C | 80% | 1010.4 hPa | 0 mm | - | 21 W/m² | - |
| 1777984239 | 9.44° C | 80% | 1010.4 hPa | 0 mm | - | 18 W/m² | - |
| 1777983936 | 9.44° C | 81% | 1010 hPa | 0 mm | - | 44 W/m² | - |
| 1777983632 | 9.44° C | 83% | 1010 hPa | 0 mm | - | 53 W/m² | - |
| 1777983329 | 8.89° C | 83% | 1010.4 hPa | 0 mm | - | 33 W/m² | - |
| 1777983026 | 9.44° C | 83% | 1010.4 hPa | 0 mm | - | 28 W/m² | - |
* Rain latest hour (hover to see other rain measurements)
** Current wind speed in m/s (hover to see current wind gust speed)